Time;durP1;ratioP1;P1;durP2;ratioP2;P2;SDS_P1;SDS_P2;PMS_P1;PMS_P2;Temp;Humidity;BMP_temperature;BMP_pressure;BME280_temperature;BME280_humidity;BME280_pressure;Samples;Min_cycle;Max_cycle;Signal;HPM_P1;HPM_P2
2022/11/10 00:00:47;;;;;;;50.70;31.53;;;6.40;99.90;;;;;;5074082;28;20290;-68
2022/11/10 00:03:14;;;;;;;52.30;32.37;;;6.40;99.90;;;;;;5074421;28;20205;-69
2022/11/10 00:05:41;;;;;;;52.67;31.90;;;6.40;99.90;;;;;;5071968;28;20201;-68
2022/11/10 00:08:11;;;;;;;53.23;31.70;;;6.50;99.90;;;;;;5073258;28;20580;-68
2022/11/10 00:13:21;;;;;;;52.17;32.10;;;6.50;99.90;;;;;;5072120;28;20266;-67
2022/11/10 00:18:33;;;;;;;51.90;31.57;;;6.50;99.90;;;;;;5073108;28;20195;-68
2022/11/10 00:21:05;;;;;;;53.20;31.33;;;6.50;99.90;;;;;;5073101;28;20211;-68
2022/11/10 00:23:32;;;;;;;51.87;31.73;;;6.50;99.90;;;;;;5073284;28;20232;-68
2022/11/10 00:25:59;;;;;;;52.43;31.00;;;6.50;99.90;;;;;;5074077;28;20200;-68
2022/11/10 00:28:30;;;;;;;51.77;30.70;;;6.40;99.90;;;;;;5073964;28;20208;-69
2022/11/10 00:30:57;;;;;;;54.30;30.90;;;6.50;99.90;;;;;;5084054;28;20573;-68
2022/11/10 00:33:24;;;;;;;54.80;32.77;;;6.40;99.90;;;;;;5093651;28;20592;-68
2022/11/10 00:35:51;;;;;;;56.03;31.70;;;6.40;99.90;;;;;;5093312;28;20239;-68
2022/11/10 00:38:18;;;;;;;51.70;31.40;;;6.40;99.90;;;;;;5093136;28;20200;-68
2022/11/10 00:40:45;;;;;;;54.47;31.70;;;6.40;99.90;;;;;;5093735;28;20230;-67
2022/11/10 00:43:11;;;;;;;56.97;33.07;;;6.40;99.90;;;;;;5082710;28;20204;-67
2022/11/10 00:45:43;;;;;;;57.53;32.03;;;6.40;99.90;;;;;;5069852;28;20199;-67
2022/11/10 00:48:09;;;;;;;50.50;30.17;;;6.40;99.90;;;;;;5073017;28;20627;-66
2022/11/10 00:50:36;;;;;;;55.20;30.60;;;6.40;99.90;;;;;;5071631;28;20326;-69
2022/11/10 00:53:03;;;;;;;52.23;31.03;;;6.40;99.90;;;;;;5053395;28;20208;-67
2022/11/10 00:55:30;;;;;;;51.07;29.73;;;6.40;99.90;;;;;;5067617;28;20220;-69
2022/11/10 00:57:56;;;;;;;50.80;30.13;;;6.30;99.90;;;;;;5072942;28;20212;-67
2022/11/10 01:00:23;;;;;;;48.60;28.40;;;6.30;99.90;;;;;;5072807;28;20281;-67
2022/11/10 01:02:51;;;;;;;46.53;28.63;;;6.30;99.90;;;;;;5069576;28;20205;-67
2022/11/10 01:05:18;;;;;;;48.20;28.97;;;6.30;99.90;;;;;;5072920;28;20211;-67
2022/11/10 01:07:45;;;;;;;48.47;28.23;;;6.30;99.90;;;;;;5072933;28;20218;-67
2022/11/10 01:10:12;;;;;;;47.60;28.30;;;6.30;99.90;;;;;;5072971;28;20200;-67
2022/11/10 01:12:39;;;;;;;48.67;27.30;;;6.30;99.90;;;;;;5070858;28;20201;-68
2022/11/10 01:15:07;;;;;;;48.87;29.63;;;6.30;99.90;;;;;;5072990;28;20228;-67
2022/11/10 01:17:34;;;;;;;49.10;29.60;;;6.20;99.90;;;;;;5072849;28;20207;-68
2022/11/10 01:20:02;;;;;;;44.80;27.47;;;6.20;99.90;;;;;;5072995;28;20192;-68
2022/11/10 01:22:29;;;;;;;45.63;27.37;;;6.20;99.90;;;;;;5072184;28;20228;-67
2022/11/10 01:24:55;;;;;;;51.47;29.57;;;6.20;99.90;;;;;;5072693;28;20215;-68
2022/11/10 01:27:22;;;;;;;52.40;27.87;;;6.20;99.90;;;;;;5072591;28;20215;-68
2022/11/10 01:29:49;;;;;;;51.77;29.70;;;6.20;99.90;;;;;;5072936;28;20204;-68
2022/11/10 01:32:16;;;;;;;47.60;28.20;;;6.20;99.90;;;;;;5071697;28;20201;-68
2022/11/10 01:34:42;;;;;;;45.50;26.63;;;6.10;99.90;;;;;;5072453;28;20201;-68
2022/11/10 01:37:11;;;;;;;53.27;28.60;;;6.10;99.90;;;;;;5072444;28;20684;-67
2022/11/10 01:39:38;;;;;;;50.07;28.43;;;6.10;99.90;;;;;;5072652;28;20209;-68
2022/11/10 01:42:05;;;;;;;49.20;28.47;;;6.10;99.90;;;;;;5071518;28;20414;-68
2022/11/10 01:44:34;;;;;;;50.47;27.93;;;6.10;99.90;;;;;;5072745;28;20704;-68
2022/11/10 01:47:01;;;;;;;51.30;29.90;;;6.10;99.90;;;;;;5072076;28;20197;-68
2022/11/10 01:49:31;;;;;;;53.87;29.37;;;6.10;99.90;;;;;;5072134;28;20228;-68
2022/11/10 01:52:02;;;;;;;50.10;27.57;;;6.10;99.90;;;;;;5070293;28;20201;-68
2022/11/10 01:54:34;;;;;;;48.47;27.23;;;6.10;99.90;;;;;;5087671;28;20208;-68
2022/11/10 01:57:05;;;;;;;44.80;26.63;;;6.00;99.90;;;;;;5092418;28;20253;-71
2022/11/10 01:59:36;;;;;;;48.23;26.77;;;6.00;99.90;;;;;;5075493;28;20193;-68
2022/11/10 02:02:11;;;;;;;56.03;29.73;;;6.10;99.90;;;;;;5066119;28;20839;-69
2022/11/10 02:04:39;;;;;;;47.87;27.93;;;6.10;99.90;;;;;;5065627;28;20200;-67
2022/11/10 02:07:07;;;;;;;55.33;29.13;;;6.10;99.90;;;;;;5051801;28;20207;-68
2022/11/10 02:09:35;;;;;;;49.83;28.97;;;6.10;99.90;;;;;;5061556;28;20201;-67
2022/11/10 02:12:02;;;;;;;50.47;27.10;;;6.00;99.90;;;;;;5091764;28;20206;-68
2022/11/10 02:14:29;;;;;;;47.50;26.27;;;6.00;99.90;;;;;;5092284;28;20546;-68
2022/11/10 02:16:56;;;;;;;46.73;27.23;;;6.00;99.90;;;;;;5092167;28;20572;-68
2022/11/10 02:19:25;;;;;;;43.70;25.50;;;6.00;99.90;;;;;;5092410;28;20570;-68
2022/11/10 02:21:53;;;;;;;48.53;27.90;;;6.00;99.90;;;;;;5070158;28;20203;-67
2022/11/10 02:24:20;;;;;;;44.37;26.20;;;6.00;99.90;;;;;;5032350;28;20549;-68
2022/11/10 02:26:50;;;;;;;49.27;26.97;;;6.00;99.90;;;;;;5035164;28;20198;-68
2022/11/10 02:29:17;;;;;;;42.50;25.37;;;6.00;99.90;;;;;;5034949;28;20201;-68
2022/11/10 02:31:44;;;;;;;43.40;24.47;;;6.00;99.90;;;;;;5036614;28;20706;-68
2022/11/10 02:34:11;;;;;;;46.73;27.13;;;6.00;99.90;;;;;;5035834;28;20210;-68
2022/11/10 02:36:38;;;;;;;46.60;26.60;;;6.00;99.90;;;;;;5034156;28;20218;-67
2022/11/10 02:39:06;;;;;;;42.73;25.53;;;6.00;99.90;;;;;;5035513;28;20697;-68
2022/11/10 02:41:32;;;;;;;42.93;25.67;;;6.00;99.90;;;;;;5035094;28;20210;-68
2022/11/10 02:44:00;;;;;;;45.60;26.27;;;6.00;99.90;;;;;;5035769;28;20583;-68
2022/11/10 02:46:27;;;;;;;46.07;27.13;;;6.00;99.90;;;;;;5034897;28;20288;-68
2022/11/10 02:48:54;;;;;;;48.03;26.53;;;6.00;99.90;;;;;;5035276;28;20213;-68
2022/11/10 02:51:20;;;;;;;42.67;25.20;;;6.00;99.90;;;;;;5035814;28;20698;-69
2022/11/10 02:53:48;;;;;;;45.27;25.53;;;6.00;99.90;;;;;;5035946;28;20208;-67
2022/11/10 02:56:17;;;;;;;44.97;26.00;;;6.00;99.90;;;;;;5034603;28;20680;-67
2022/11/10 02:58:43;;;;;;;47.03;25.67;;;6.00;99.90;;;;;;5034478;28;20209;-69
2022/11/10 03:01:10;;;;;;;48.33;27.17;;;6.00;99.90;;;;;;5035495;28;20212;-68
2022/11/10 03:03:37;;;;;;;50.03;26.53;;;6.00;99.90;;;;;;5034966;28;20225;-68
2022/11/10 03:06:04;;;;;;;48.00;27.40;;;6.00;99.90;;;;;;5034960;28;20209;-69
2022/11/10 03:08:31;;;;;;;43.63;26.30;;;6.10;99.90;;;;;;5034533;28;20208;-69
2022/11/10 03:10:58;;;;;;;45.10;26.13;;;6.10;99.90;;;;;;5034721;28;20212;-69
2022/11/10 03:13:26;;;;;;;45.10;26.07;;;6.20;99.90;;;;;;5035480;28;20217;-68
2022/11/10 03:15:53;;;;;;;46.50;26.27;;;6.20;99.90;;;;;;5034590;28;20225;-68
2022/11/10 03:18:20;;;;;;;44.00;25.40;;;6.20;99.90;;;;;;5033562;28;20207;-68
2022/11/10 03:20:48;;;;;;;43.20;25.33;;;6.30;99.90;;;;;;5034813;28;20214;-67
2022/11/10 03:23:15;;;;;;;43.60;25.03;;;6.30;99.90;;;;;;5056825;28;20759;-68
2022/11/10 03:25:42;;;;;;;43.57;25.33;;;6.30;99.90;;;;;;5074742;28;20559;-68
2022/11/10 03:28:09;;;;;;;43.77;25.43;;;6.30;99.90;;;;;;5073505;28;20201;-67
2022/11/10 03:30:38;;;;;;;43.87;25.43;;;6.40;99.90;;;;;;5074982;28;20231;-67
2022/11/10 03:33:04;;;;;;;41.27;24.97;;;6.40;99.90;;;;;;5074361;28;20200;-67
2022/11/10 03:35:31;;;;;;;43.50;24.53;;;6.40;99.90;;;;;;5074463;28;20205;-68
2022/11/10 03:37:58;;;;;;;45.90;25.60;;;6.40;99.90;;;;;;5074269;28;20207;-67
2022/11/10 03:40:25;;;;;;;47.83;25.77;;;6.40;99.90;;;;;;5073838;28;20200;-68
2022/11/10 03:42:51;;;;;;;48.83;26.60;;;6.40;99.90;;;;;;5074245;28;20207;-68
2022/11/10 03:45:18;;;;;;;40.17;24.73;;;6.50;99.90;;;;;;5074768;28;20212;-67
2022/11/10 03:47:48;;;;;;;42.57;23.97;;;6.50;99.90;;;;;;5074176;28;20560;-67
2022/11/10 03:50:15;;;;;;;41.70;23.57;;;6.50;99.90;;;;;;5073805;28;20209;-67
2022/11/10 03:52:44;;;;;;;40.33;24.03;;;6.50;99.90;;;;;;5073929;28;20201;-68
2022/11/10 03:55:12;;;;;;;45.27;25.47;;;6.60;99.90;;;;;;5074144;28;20290;-67
2022/11/10 03:57:39;;;;;;;40.20;24.90;;;6.60;99.90;;;;;;5072950;28;20224;-69
2022/11/10 04:00:08;;;;;;;42.27;23.60;;;6.60;99.90;;;;;;5073281;28;20577;-69
2022/11/10 04:02:35;;;;;;;39.20;23.63;;;6.60;99.90;;;;;;5074207;28;20221;-68
2022/11/10 04:10:40;;;;;;;40.40;23.77;;;6.60;99.90;;;;;;5073728;28;20227;-67
2022/11/10 04:16:00;;;;;;;41.17;23.83;;;6.60;99.90;;;;;;5048579;28;20225;-67
2022/11/10 04:18:28;;;;;;;45.87;26.03;;;6.60;99.90;;;;;;5072236;28;20242;-69
2022/11/10 04:20:58;;;;;;;43.57;23.33;;;6.60;99.90;;;;;;5073666;28;20213;-68
2022/11/10 04:23:27;;;;;;;44.97;25.33;;;6.60;99.90;;;;;;5073441;28;20241;-68
2022/11/10 04:28:44;;;;;;;46.80;25.47;;;6.60;99.90;;;;;;5072743;28;20274;-69
2022/11/10 04:31:11;;;;;;;43.00;24.50;;;6.70;99.90;;;;;;5073836;28;20667;-67
2022/11/10 04:33:40;;;;;;;44.30;26.40;;;6.70;99.90;;;;;;5073543;28;20211;-70
2022/11/10 04:36:09;;;;;;;37.93;22.73;;;6.70;99.90;;;;;;5073522;28;20633;-68
2022/11/10 06:28:57;;;;;;;33.93;21.10;;;6.50;99.90;;;;;;5088576;28;20588;-68
2022/11/10 06:31:24;;;;;;;33.27;20.53;;;7.40;99.90;;;;;;5088665;28;20208;-68
2022/11/10 06:33:51;;;;;;;33.73;21.53;;;7.50;99.90;;;;;;5085978;28;20204;-69
2022/11/10 06:36:17;;;;;;;36.17;20.90;;;7.60;99.90;;;;;;5088777;28;20215;-67
2022/11/10 06:38:44;;;;;;;34.67;21.10;;;7.70;99.90;;;;;;5088682;28;20810;-67
2022/11/10 06:41:11;;;;;;;34.17;21.03;;;7.80;99.90;;;;;;5086484;28;20203;-66
2022/11/10 06:43:38;;;;;;;39.47;22.50;;;7.80;99.90;;;;;;5085321;28;20294;-68
2022/11/10 06:46:06;;;;;;;34.23;21.37;;;7.80;99.90;;;;;;5087852;28;20600;-69
2022/11/10 06:48:33;;;;;;;36.57;22.07;;;7.90;99.90;;;;;;5088448;28;20563;-68
2022/11/10 06:51:00;;;;;;;37.67;22.43;;;7.90;99.90;;;;;;5088742;28;20210;-68
2022/11/10 06:53:27;;;;;;;37.00;22.13;;;7.90;99.90;;;;;;5088219;28;20211;-67
2022/11/10 06:55:54;;;;;;;38.47;22.83;;;8.00;99.90;;;;;;5087493;28;20554;-69
2022/11/10 06:58:20;;;;;;;40.47;22.57;;;7.90;99.90;;;;;;5087596;28;20204;-67
2022/11/10 07:00:47;;;;;;;37.57;21.50;;;8.00;99.90;;;;;;5088094;28;20210;-67
2022/11/10 07:03:16;;;;;;;36.83;21.40;;;8.00;99.90;;;;;;5088323;28;20567;-68
2022/11/10 07:05:43;;;;;;;33.00;20.47;;;8.10;99.90;;;;;;5085274;28;20796;-68
2022/11/10 07:08:12;;;;;;;36.70;21.67;;;8.10;99.90;;;;;;5087568;28;20241;-70
2022/11/10 07:10:39;;;;;;;40.07;20.40;;;8.20;99.90;;;;;;5084744;28;20213;-68
2022/11/10 07:13:06;;;;;;;35.90;21.63;;;8.20;99.90;;;;;;5088045;28;20210;-69
2022/11/10 07:15:33;;;;;;;36.90;21.60;;;8.20;99.90;;;;;;5081517;28;20196;-68
2022/11/10 07:18:01;;;;;;;35.23;21.63;;;8.20;99.90;;;;;;5061904;28;20221;-70
2022/11/10 07:20:29;;;;;;;38.67;22.53;;;8.30;99.90;;;;;;5059617;28;20641;-69
2022/11/10 07:23:00;;;;;;;38.83;22.43;;;8.30;99.90;;;;;;5056711;28;20285;-70
2022/11/10 07:25:27;;;;;;;35.87;20.70;;;8.30;99.90;;;;;;5056031;28;20228;-69
2022/11/10 07:27:54;;;;;;;34.60;21.10;;;8.30;99.90;;;;;;5048375;28;20719;-70
2022/11/10 07:30:21;;;;;;;35.20;21.70;;;8.30;99.90;;;;;;5044121;28;20235;-68
2022/11/10 07:32:57;;;;;;;34.87;21.83;;;8.40;99.90;;;;;;5053491;28;20212;-68
2022/11/10 07:35:24;;;;;;;38.37;21.30;;;8.40;99.90;;;;;;5053895;28;20193;-69
2022/11/10 07:37:52;;;;;;;36.53;22.17;;;8.40;99.90;;;;;;5052716;28;20566;-68
2022/11/10 07:40:19;;;;;;;33.57;20.97;;;8.40;99.90;;;;;;5039666;28;20341;-68
2022/11/10 07:42:46;;;;;;;33.37;20.83;;;8.50;99.90;;;;;;5037786;28;20202;-67
2022/11/10 07:45:12;;;;;;;38.70;20.43;;;8.50;99.90;;;;;;5054188;28;20210;-70
2022/11/10 07:47:39;;;;;;;33.33;19.83;;;8.60;99.90;;;;;;5053854;28;20240;-68
2022/11/10 07:50:07;;;;;;;34.20;20.40;;;8.60;99.90;;;;;;5050051;28;20197;-68
2022/11/10 07:52:34;;;;;;;34.93;20.30;;;8.60;99.90;;;;;;5043883;28;20208;-69
2022/11/10 07:55:03;;;;;;;35.70;20.57;;;8.60;99.90;;;;;;5042111;28;20195;-68
2022/11/10 07:57:30;;;;;;;30.50;19.60;;;8.60;99.90;;;;;;5039355;28;20217;-69
2022/11/10 07:59:57;;;;;;;32.23;19.97;;;8.70;99.90;;;;;;5043875;28;20689;-70
2022/11/10 08:02:23;;;;;;;31.13;20.13;;;8.70;99.90;;;;;;5042755;28;20227;-68
2022/11/10 08:04:50;;;;;;;33.67;20.43;;;8.80;99.90;;;;;;5045010;28;20224;-68
2022/11/10 08:07:17;;;;;;;31.43;19.03;;;8.90;99.90;;;;;;5041926;28;20265;-69
2022/11/10 08:09:44;;;;;;;35.43;19.67;;;8.90;99.90;;;;;;5045458;28;20209;-70
2022/11/10 08:12:12;;;;;;;33.23;18.63;;;9.00;99.90;;;;;;5042024;28;20205;-68
2022/11/10 08:14:39;;;;;;;32.87;18.90;;;9.00;99.90;;;;;;5050540;28;20201;-70
2022/11/10 08:17:06;;;;;;;34.10;19.83;;;9.00;99.90;;;;;;5053948;28;20646;-69
2022/11/10 08:19:33;;;;;;;33.77;20.10;;;9.10;99.90;;;;;;5052640;28;20213;-68
2022/11/10 08:21:59;;;;;;;37.63;19.67;;;9.10;99.90;;;;;;5051090;28;20206;-69
2022/11/10 08:24:26;;;;;;;38.43;20.77;;;9.10;99.90;;;;;;5052526;28;20202;-67
2022/11/10 08:26:53;;;;;;;34.80;18.80;;;9.10;99.90;;;;;;5053292;28;20325;-69
2022/11/10 08:29:21;;;;;;;36.33;19.77;;;9.20;99.90;;;;;;5043625;28;20240;-69
2022/11/10 08:31:48;;;;;;;35.33;19.63;;;9.20;99.90;;;;;;5051607;28;20215;-69
2022/11/10 08:34:15;;;;;;;34.93;19.90;;;9.20;99.90;;;;;;5052862;28;20213;-69
2022/11/10 08:36:41;;;;;;;37.20;20.73;;;9.20;99.90;;;;;;5049666;28;20296;-68
2022/11/10 08:39:08;;;;;;;34.27;20.70;;;9.20;99.90;;;;;;5051847;28;20212;-69
2022/11/10 08:41:35;;;;;;;34.70;20.47;;;9.20;99.90;;;;;;5053335;28;20667;-68
2022/11/10 08:44:02;;;;;;;36.93;21.87;;;9.20;99.90;;;;;;5072931;28;20686;-69
2022/11/10 08:46:30;;;;;;;33.53;20.60;;;9.30;99.90;;;;;;5073091;28;20224;-70
2022/11/10 08:48:57;;;;;;;35.13;20.97;;;9.30;99.90;;;;;;5062035;28;20202;-71
2022/11/10 08:51:23;;;;;;;34.83;20.53;;;9.20;99.90;;;;;;5052487;28;20300;-70
2022/11/10 08:53:50;;;;;;;31.20;19.60;;;9.30;99.90;;;;;;5046423;28;20206;-70
2022/11/10 08:56:17;;;;;;;38.00;21.73;;;9.30;99.90;;;;;;5032567;28;20198;-69
2022/11/10 08:58:44;;;;;;;44.33;23.90;;;9.30;99.90;;;;;;5044295;28;20209;-69
2022/11/10 09:01:11;;;;;;;35.23;21.73;;;9.30;99.90;;;;;;5052359;28;20287;-70
2022/11/10 09:03:39;;;;;;;38.03;21.93;;;9.30;99.90;;;;;;5052775;28;20205;-69
2022/11/10 09:06:06;;;;;;;42.50;22.63;;;9.40;99.90;;;;;;5052554;28;20685;-69
2022/11/10 09:08:33;;;;;;;43.00;22.87;;;9.40;99.90;;;;;;5052569;28;20212;-70
2022/11/10 09:11:02;;;;;;;34.90;21.23;;;9.40;99.90;;;;;;5053013;28;20627;-71
2022/11/10 09:13:30;;;;;;;35.03;22.87;;;9.50;99.90;;;;;;5052613;28;20681;-70
2022/11/10 09:15:59;;;;;;;42.67;23.03;;;9.50;99.90;;;;;;5052555;28;20239;-73
2022/11/10 09:18:26;;;;;;;43.23;23.50;;;9.50;99.90;;;;;;5049425;28;20235;-70
2022/11/10 09:20:55;;;;;;;37.70;22.90;;;9.50;99.90;;;;;;5051786;28;20201;-71
2022/11/10 09:23:23;;;;;;;42.90;22.67;;;9.50;99.90;;;;;;5052314;28;20201;-70
2022/11/10 09:25:54;;;;;;;39.13;22.77;;;9.50;99.90;;;;;;5051310;28;20201;-69
2022/11/10 09:28:22;;;;;;;37.77;22.47;;;9.50;99.90;;;;;;5051910;28;20240;-71
2022/11/10 09:30:50;;;;;;;39.17;22.80;;;9.50;99.90;;;;;;5052067;28;20231;-70
2022/11/10 09:33:17;;;;;;;57.30;34.77;;;9.50;99.90;;;;;;5052086;28;20211;-69
2022/11/10 09:35:44;;;;;;;39.87;22.27;;;9.60;99.90;;;;;;5050561;28;20205;-71
2022/11/10 09:38:12;;;;;;;43.63;22.37;;;9.60;99.90;;;;;;5051890;28;20201;-71
2022/11/10 09:40:50;;;;;;;38.50;23.07;;;9.60;99.90;;;;;;5048196;28;20204;-70
2022/11/10 09:43:24;;;;;;;38.07;22.50;;;9.60;99.90;;;;;;5032561;28;20214;-70
2022/11/10 09:45:53;;;;;;;39.63;22.17;;;9.60;99.90;;;;;;5032557;28;20194;-69
2022/11/10 09:48:26;;;;;;;42.83;22.53;;;9.60;99.90;;;;;;5032401;28;20225;-70
2022/11/10 09:50:56;;;;;;;42.07;23.03;;;9.70;99.90;;;;;;5032099;28;20197;-71
2022/11/10 09:53:27;;;;;;;39.40;22.57;;;9.70;99.90;;;;;;5040240;28;20208;-69
2022/11/10 09:55:58;;;;;;;39.70;23.40;;;9.70;99.90;;;;;;5050711;28;20197;-70
2022/11/10 09:58:31;;;;;;;39.53;22.37;;;9.70;99.90;;;;;;5051576;28;20196;-68
2022/11/10 10:01:07;;;;;;;47.10;23.23;;;9.70;99.90;;;;;;5051533;28;20194;-68
2022/11/10 10:03:37;;;;;;;37.70;22.10;;;9.70;99.90;;;;;;5051997;28;20199;-68
2022/11/10 10:06:09;;;;;;;39.47;21.73;;;9.70;99.90;;;;;;5051510;28;20209;-68
2022/11/10 10:08:55;;;;;;;40.03;22.87;;;9.70;99.90;;;;;;5051429;28;20198;-67
2022/11/10 10:11:36;;;;;;;39.00;21.93;;;9.70;99.90;;;;;;5051654;28;20189;-68
2022/11/10 10:14:23;;;;;;;38.57;21.03;;;9.80;99.90;;;;;;5051591;28;20193;-71
2022/11/10 10:16:59;;;;;;;36.10;21.40;;;9.80;99.90;;;;;;5051608;28;20189;-67
2022/11/10 10:19:35;;;;;;;42.23;21.07;;;9.90;99.90;;;;;;5051718;28;20203;-69
2022/11/10 10:22:23;;;;;;;37.27;21.50;;;9.90;99.90;;;;;;5046822;28;20439;-67
2022/11/10 10:24:56;;;;;;;35.53;20.23;;;9.90;99.90;;;;;;5049504;28;20205;-69
2022/11/10 10:27:27;;;;;;;38.17;21.07;;;10.00;99.90;;;;;;5051120;28;20241;-70
2022/11/10 10:29:55;;;;;;;36.57;20.23;;;10.00;99.90;;;;;;5049642;28;20205;-69
2022/11/10 10:32:22;;;;;;;37.57;20.87;;;10.00;99.90;;;;;;5048988;28;20225;-69
2022/11/10 10:34:49;;;;;;;35.33;20.10;;;9.90;99.90;;;;;;5049400;28;20570;-69
2022/11/10 10:37:23;;;;;;;36.90;20.60;;;9.90;99.90;;;;;;5050128;28;20569;-69
2022/11/10 10:39:54;;;;;;;39.33;21.67;;;9.80;99.90;;;;;;5048928;28;20281;-68
2022/11/10 10:42:30;;;;;;;35.43;20.67;;;9.90;99.90;;;;;;5050756;28;20615;-70
2022/11/10 10:45:16;;;;;;;37.50;20.37;;;9.90;99.90;;;;;;5051312;28;20193;-70
2022/11/10 10:47:43;;;;;;;35.80;20.40;;;9.90;99.90;;;;;;5050653;28;20599;-70
2022/11/10 10:50:21;;;;;;;37.07;21.93;;;10.00;99.90;;;;;;5048925;28;20197;-72
2022/11/10 10:53:06;;;;;;;40.67;22.60;;;10.00;99.90;;;;;;5049909;28;20216;-68
2022/11/10 10:55:35;;;;;;;44.53;23.67;;;9.90;99.90;;;;;;5050329;28;20205;-67
2022/11/10 10:58:04;;;;;;;42.63;23.93;;;9.90;99.90;;;;;;5050351;28;20560;-71
2022/11/10 11:00:32;;;;;;;43.20;23.73;;;9.90;99.90;;;;;;5038207;28;20232;-73
2022/11/10 11:03:02;;;;;;;38.40;23.90;;;9.90;99.90;;;;;;5051899;28;20206;-67
2022/11/10 11:05:29;;;;;;;42.97;24.70;;;9.90;99.90;;;;;;5054996;28;20526;-67
2022/11/10 11:07:57;;;;;;;42.43;24.13;;;9.90;99.90;;;;;;5053478;28;20694;-67
2022/11/10 11:10:27;;;;;;;41.73;24.83;;;9.90;99.90;;;;;;5051448;28;20201;-69
2022/11/10 11:12:56;;;;;;;40.40;22.73;;;9.90;99.90;;;;;;5054736;28;20207;-69
2022/11/10 11:15:27;;;;;;;42.37;23.53;;;9.90;99.90;;;;;;5054659;28;20206;-67
2022/11/10 11:17:55;;;;;;;48.40;25.30;;;9.90;99.90;;;;;;5054282;28;20252;-68
2022/11/10 11:20:35;;;;;;;45.60;26.10;;;9.90;99.90;;;;;;5054590;28;20205;-68
2022/11/10 11:23:15;;;;;;;43.57;24.30;;;9.90;99.90;;;;;;5054410;28;20560;-67
2022/11/10 11:25:44;;;;;;;39.90;24.77;;;9.90;99.90;;;;;;5066985;28;20193;-67
2022/11/10 11:28:22;;;;;;;43.33;24.77;;;9.90;99.90;;;;;;5046884;28;20229;-67
2022/11/10 11:31:01;;;;;;;48.77;26.10;;;9.90;99.90;;;;;;5054390;28;20205;-69
2022/11/10 11:33:37;;;;;;;43.60;26.07;;;9.90;99.90;;;;;;5054700;28;20201;-68
2022/11/10 11:36:14;;;;;;;45.13;27.80;;;9.90;99.90;;;;;;5052182;28;20207;-68
2022/11/10 11:38:51;;;;;;;44.50;26.43;;;9.90;99.90;;;;;;5053300;28;20193;-68
2022/11/10 11:41:32;;;;;;;49.07;27.40;;;9.90;99.90;;;;;;5054509;28;20189;-70
2022/11/10 11:44:16;;;;;;;45.87;27.07;;;9.80;99.90;;;;;;5054079;28;20200;-69
2022/11/10 11:46:52;;;;;;;49.00;27.93;;;9.80;99.90;;;;;;5050780;28;20247;-72
2022/11/10 11:49:43;;;;;;;64.93;37.10;;;9.80;99.90;;;;;;5054588;28;20190;-72
2022/11/10 11:52:23;;;;;;;50.33;27.43;;;9.80;99.90;;;;;;5053848;28;20673;-68
2022/11/10 11:55:17;;;;;;;43.73;25.40;;;9.80;99.90;;;;;;5053172;28;20641;-68
2022/11/10 11:57:53;;;;;;;51.20;28.20;;;9.80;99.90;;;;;;5054058;28;20206;-67
2022/11/10 12:00:22;;;;;;;47.87;28.83;;;9.70;99.90;;;;;;5053999;28;20194;-69
2022/11/10 12:03:16;;;;;;;52.53;29.17;;;9.70;99.90;;;;;;5053047;28;20213;-68
2022/11/10 12:05:52;;;;;;;44.57;26.43;;;9.70;99.90;;;;;;5046839;28;20209;-67
2022/11/10 12:08:28;;;;;;;46.13;28.20;;;9.70;99.90;;;;;;5053974;28;20224;-69
2022/11/10 12:11:06;;;;;;;49.20;27.60;;;9.70;99.90;;;;;;5053983;28;20216;-67
2022/11/10 12:13:38;;;;;;;42.93;26.57;;;9.80;99.90;;;;;;5052068;28;20207;-67
2022/11/10 12:16:15;;;;;;;48.70;27.30;;;9.80;99.90;;;;;;5053798;28;20550;-67
2022/11/10 12:18:47;;;;;;;52.43;29.07;;;9.80;99.90;;;;;;5052589;28;20212;-68
2022/11/10 12:21:28;;;;;;;52.57;29.10;;;9.80;99.90;;;;;;5033805;28;20628;-68
2022/11/10 12:24:08;;;;;;;51.97;28.53;;;9.80;99.90;;;;;;5052629;28;20213;-66
2022/11/10 12:26:40;;;;;;;50.43;28.23;;;9.80;99.90;;;;;;5053266;28;20197;-67
2022/11/10 12:29:19;;;;;;;53.33;28.57;;;9.80;99.90;;;;;;5053563;28;20255;-68
2022/11/10 12:31:52;;;;;;;51.90;28.23;;;9.80;99.90;;;;;;5052814;28;20200;-68
2022/11/10 12:34:28;;;;;;;57.63;30.87;;;9.70;99.90;;;;;;5050837;28;20208;-67
2022/11/10 12:36:56;;;;;;;50.40;28.63;;;9.70;99.90;;;;;;5032961;28;20204;-67
2022/11/10 12:39:37;;;;;;;50.97;27.90;;;9.70;99.90;;;;;;5042247;28;20225;-66
2022/11/10 12:42:06;;;;;;;56.40;29.20;;;9.70;99.90;;;;;;5052169;28;20212;-69
2022/11/10 12:44:39;;;;;;;57.77;30.30;;;9.70;99.90;;;;;;5052687;28;20209;-69
2022/11/10 12:47:14;;;;;;;50.67;28.57;;;9.60;99.90;;;;;;5053298;28;20200;-72
2022/11/10 12:49:47;;;;;;;52.17;28.13;;;9.60;99.90;;;;;;5049832;28;20546;-70
2022/11/10 12:52:19;;;;;;;53.50;29.17;;;9.70;99.90;;;;;;5049006;28;20205;-70
2022/11/10 12:54:47;;;;;;;52.27;29.17;;;9.70;99.90;;;;;;5050275;28;20197;-70
2022/11/10 12:57:18;;;;;;;50.93;27.20;;;9.70;99.90;;;;;;5052935;28;20203;-70
2022/11/10 12:59:53;;;;;;;49.27;28.97;;;9.70;99.90;;;;;;5053012;28;20200;-70
2022/11/10 13:02:27;;;;;;;51.37;28.17;;;9.70;99.90;;;;;;5053125;28;20546;-70
2022/11/10 13:05:29;;;;;;;52.13;28.23;;;9.70;99.90;;;;;;5052658;28;20319;-70
2022/11/10 13:08:11;;;;;;;55.30;29.33;;;9.70;99.90;;;;;;5030287;28;20217;-68
2022/11/10 13:10:49;;;;;;;50.03;28.37;;;9.70;99.90;;;;;;5052646;28;20644;-70
2022/11/10 13:13:16;;;;;;;48.20;27.63;;;9.70;99.90;;;;;;5052465;28;20197;-70
2022/11/10 13:15:49;;;;;;;46.37;26.57;;;9.70;99.90;;;;;;5052586;28;20697;-69
2022/11/10 13:18:39;;;;;;;50.73;27.20;;;9.70;99.90;;;;;;5053156;28;20193;-68
2022/11/10 13:21:06;;;;;;;48.07;27.37;;;9.70;99.90;;;;;;5043612;28;20211;-70
2022/11/10 13:23:54;;;;;;;45.23;25.47;;;9.70;99.90;;;;;;5052546;28;20205;-70
2022/11/10 13:26:49;;;;;;;50.60;27.67;;;9.70;99.90;;;;;;5051682;28;20263;-72
2022/11/10 13:29:28;;;;;;;43.83;25.93;;;9.70;99.90;;;;;;5052187;28;20213;-70
2022/11/10 13:31:57;;;;;;;46.03;26.37;;;9.60;99.90;;;;;;5052412;28;20213;-69
2022/11/10 13:34:31;;;;;;;44.10;24.57;;;9.70;99.90;;;;;;5052268;28;20209;-68
2022/11/10 13:36:58;;;;;;;41.43;24.13;;;9.70;99.90;;;;;;5052406;28;20348;-67
2022/11/10 13:39:28;;;;;;;46.47;26.10;;;9.70;99.90;;;;;;5052359;28;20205;-72
2022/11/10 13:42:03;;;;;;;45.60;25.80;;;9.70;99.90;;;;;;5052058;28;20301;-69
2022/11/10 13:44:32;;;;;;;41.60;24.83;;;9.70;99.90;;;;;;5052201;28;20189;-70
2022/11/10 13:47:33;;;;;;;53.33;28.07;;;9.70;99.90;;;;;;5051972;28;20217;-70
2022/11/10 13:50:13;;;;;;;46.07;26.47;;;9.60;99.90;;;;;;5044642;28;20209;-70
2022/11/10 13:52:55;;;;;;;48.90;26.60;;;9.60;99.90;;;;;;5052110;28;20204;-68
2022/11/10 13:55:34;;;;;;;48.97;26.53;;;9.70;99.90;;;;;;5052179;28;20229;-70
2022/11/10 13:58:03;;;;;;;51.67;28.43;;;9.70;99.90;;;;;;5052098;28;20189;-70
2022/11/10 14:00:32;;;;;;;48.80;28.27;;;9.70;99.90;;;;;;5052032;28;20249;-69
2022/11/10 14:03:00;;;;;;;54.33;31.43;;;9.70;99.90;;;;;;5051702;28;20213;-69
2022/11/10 14:06:15;;;;;;;58.80;31.77;;;9.70;99.90;;;;;;5049726;28;20686;-70
2022/11/10 14:08:48;;;;;;;52.67;27.67;;;9.70;99.90;;;;;;5046363;28;20211;-68
2022/11/10 14:11:30;;;;;;;48.53;28.00;;;9.70;99.90;;;;;;5051949;28;20197;-68
2022/11/10 14:14:02;;;;;;;47.37;26.53;;;9.70;99.90;;;;;;5050660;28;20232;-71
2022/11/10 14:16:31;;;;;;;45.90;26.53;;;9.70;99.90;;;;;;5051825;28;20211;-69
2022/11/10 14:19:04;;;;;;;51.17;27.43;;;9.70;99.90;;;;;;5051582;28;20247;-69
2022/11/10 14:21:39;;;;;;;49.03;27.00;;;9.70;99.90;;;;;;5051216;28;20205;-70
2022/11/10 14:24:18;;;;;;;48.93;27.47;;;9.70;99.90;;;;;;5051728;28;20681;-68
2022/11/10 14:26:50;;;;;;;43.93;25.63;;;9.70;99.90;;;;;;5051161;28;20558;-70
2022/11/10 14:29:38;;;;;;;47.90;26.63;;;9.70;99.90;;;;;;5048496;28;20740;-69
2022/11/10 14:32:12;;;;;;;53.53;27.43;;;9.70;99.90;;;;;;5050718;28;20631;-70
2022/11/10 14:34:46;;;;;;;46.90;26.63;;;9.70;99.90;;;;;;5050467;28;20311;-69
2022/11/10 14:37:21;;;;;;;45.93;25.60;;;9.60;99.90;;;;;;5050880;28;20206;-70
2022/11/10 14:39:51;;;;;;;43.83;26.17;;;9.60;99.90;;;;;;5051188;28;20204;-69
2022/11/10 14:42:22;;;;;;;46.80;26.00;;;9.60;99.90;;;;;;5036754;28;20220;-74
2022/11/10 14:44:49;;;;;;;49.90;26.60;;;9.60;99.90;;;;;;5038479;28;20198;-70
2022/11/10 14:47:25;;;;;;;53.17;28.07;;;9.60;99.90;;;;;;5055368;28;20681;-70
2022/11/10 14:50:23;;;;;;;50.93;27.90;;;9.60;99.90;;;;;;5054511;28;20396;-70
2022/11/10 14:52:54;;;;;;;48.00;26.53;;;9.70;99.90;;;;;;4992302;28;20211;-72
2022/11/10 14:55:23;;;;;;;50.57;26.93;;;9.70;99.90;;;;;;4993058;28;20222;-69
2022/11/10 14:57:53;;;;;;;53.57;27.67;;;9.70;99.90;;;;;;4995953;28;20208;-72
2022/11/10 15:00:27;;;;;;;51.23;28.40;;;9.70;99.90;;;;;;5003941;28;20684;-70